sensor_id;sensor_type;location;lat;lon;timestamp;P1;durP1;ratioP1;P2;durP2;ratioP2
7074;SDS011;3578;51.568;6.932;2023-03-01T00:01:09;8.37;;;7.33;;
7074;SDS011;3578;51.568;6.932;2023-03-01T00:03:41;13.67;;;7.93;;
7074;SDS011;3578;51.568;6.932;2023-03-01T00:06:09;9.93;;;8.00;;
7074;SDS011;3578;51.568;6.932;2023-03-01T00:08:37;12.23;;;7.20;;
7074;SDS011;3578;51.568;6.932;2023-03-01T00:11:06;8.67;;;7.87;;
7074;SDS011;3578;51.568;6.932;2023-03-01T00:13:38;9.20;;;8.40;;
7074;SDS011;3578;51.568;6.932;2023-03-01T00:16:07;8.90;;;7.83;;
7074;SDS011;3578;51.568;6.932;2023-03-01T00:18:36;9.20;;;8.03;;
7074;SDS011;3578;51.568;6.932;2023-03-01T00:21:05;8.10;;;7.30;;
7074;SDS011;3578;51.568;6.932;2023-03-01T00:23:33;8.73;;;7.83;;
7074;SDS011;3578;51.568;6.932;2023-03-01T00:26:02;9.10;;;7.63;;
7074;SDS011;3578;51.568;6.932;2023-03-01T00:28:33;7.33;;;6.73;;
7074;SDS011;3578;51.568;6.932;2023-03-01T00:31:02;9.40;;;8.50;;
7074;SDS011;3578;51.568;6.932;2023-03-01T00:33:31;8.27;;;7.57;;
7074;SDS011;3578;51.568;6.932;2023-03-01T00:35:58;9.73;;;8.10;;
7074;SDS011;3578;51.568;6.932;2023-03-01T00:38:26;8.70;;;7.90;;
7074;SDS011;3578;51.568;6.932;2023-03-01T00:40:53;8.17;;;7.47;;
7074;SDS011;3578;51.568;6.932;2023-03-01T00:43:20;9.33;;;8.43;;
7074;SDS011;3578;51.568;6.932;2023-03-01T00:45:47;8.43;;;7.60;;
7074;SDS011;3578;51.568;6.932;2023-03-01T00:48:14;9.53;;;8.63;;
7074;SDS011;3578;51.568;6.932;2023-03-01T00:50:41;8.77;;;7.97;;
7074;SDS011;3578;51.568;6.932;2023-03-01T00:53:08;11.00;;;9.43;;
7074;SDS011;3578;51.568;6.932;2023-03-01T00:55:37;11.60;;;7.47;;
7074;SDS011;3578;51.568;6.932;2023-03-01T00:58:03;10.73;;;9.00;;
7074;SDS011;3578;51.568;6.932;2023-03-01T01:00:30;8.73;;;8.03;;
7074;SDS011;3578;51.568;6.932;2023-03-01T01:02:58;8.73;;;7.93;;
7074;SDS011;3578;51.568;6.932;2023-03-01T01:05:25;9.27;;;8.37;;
7074;SDS011;3578;51.568;6.932;2023-03-01T01:07:52;9.70;;;8.10;;
7074;SDS011;3578;51.568;6.932;2023-03-01T01:10:19;10.03;;;9.13;;
7074;SDS011;3578;51.568;6.932;2023-03-01T01:12:48;10.17;;;8.83;;
7074;SDS011;3578;51.568;6.932;2023-03-01T01:15:15;8.60;;;7.70;;
7074;SDS011;3578;51.568;6.932;2023-03-01T01:17:42;8.70;;;7.90;;
7074;SDS011;3578;51.568;6.932;2023-03-01T01:20:09;10.17;;;8.70;;
7074;SDS011;3578;51.568;6.932;2023-03-01T01:22:37;9.27;;;8.33;;
7074;SDS011;3578;51.568;6.932;2023-03-01T01:25:04;9.27;;;8.30;;
7074;SDS011;3578;51.568;6.932;2023-03-01T01:27:32;10.20;;;8.60;;
7074;SDS011;3578;51.568;6.932;2023-03-01T01:30:00;9.07;;;8.20;;
7074;SDS011;3578;51.568;6.932;2023-03-01T01:32:29;9.60;;;8.70;;
7074;SDS011;3578;51.568;6.932;2023-03-01T01:34:56;9.23;;;8.23;;
7074;SDS011;3578;51.568;6.932;2023-03-01T01:37:23;9.67;;;8.83;;
7074;SDS011;3578;51.568;6.932;2023-03-01T01:39:55;10.27;;;7.90;;
7074;SDS011;3578;51.568;6.932;2023-03-01T01:42:23;11.83;;;9.17;;
7074;SDS011;3578;51.568;6.932;2023-03-01T01:48:02;9.50;;;8.60;;
7074;SDS011;3578;51.568;6.932;2023-03-01T01:50:32;10.03;;;9.00;;
7074;SDS011;3578;51.568;6.932;2023-03-01T01:53:05;9.47;;;8.50;;
7074;SDS011;3578;51.568;6.932;2023-03-01T01:55:38;9.67;;;8.80;;
7074;SDS011;3578;51.568;6.932;2023-03-01T01:58:09;8.87;;;8.07;;
7074;SDS011;3578;51.568;6.932;2023-03-01T02:00:41;13.20;;;9.90;;
7074;SDS011;3578;51.568;6.932;2023-03-01T02:03:08;17.90;;;10.33;;
7074;SDS011;3578;51.568;6.932;2023-03-01T02:05:40;11.37;;;10.27;;
7074;SDS011;3578;51.568;6.932;2023-03-01T02:08:13;11.87;;;9.47;;
7074;SDS011;3578;51.568;6.932;2023-03-01T02:10:44;10.90;;;8.60;;
7074;SDS011;3578;51.568;6.932;2023-03-01T02:13:12;9.73;;;8.77;;
7074;SDS011;3578;51.568;6.932;2023-03-01T02:15:40;10.00;;;7.80;;
7074;SDS011;3578;51.568;6.932;2023-03-01T02:18:09;10.17;;;8.83;;
7074;SDS011;3578;51.568;6.932;2023-03-01T02:20:43;9.63;;;8.67;;
7074;SDS011;3578;51.568;6.932;2023-03-01T02:23:21;9.47;;;8.47;;
7074;SDS011;3578;51.568;6.932;2023-03-01T02:25:51;9.37;;;8.47;;
7074;SDS011;3578;51.568;6.932;2023-03-01T02:28:30;9.60;;;8.70;;
7074;SDS011;3578;51.568;6.932;2023-03-01T02:30:58;11.50;;;10.37;;
7074;SDS011;3578;51.568;6.932;2023-03-01T02:33:42;9.53;;;8.63;;
7074;SDS011;3578;51.568;6.932;2023-03-01T02:36:14;9.47;;;8.57;;
7074;SDS011;3578;51.568;6.932;2023-03-01T02:38:46;9.83;;;8.93;;
7074;SDS011;3578;51.568;6.932;2023-03-01T02:41:15;9.93;;;8.70;;
7074;SDS011;3578;51.568;6.932;2023-03-01T02:43:45;9.87;;;8.90;;
7074;SDS011;3578;51.568;6.932;2023-03-01T02:46:15;11.23;;;9.77;;
7074;SDS011;3578;51.568;6.932;2023-03-01T02:48:46;9.73;;;8.77;;
7074;SDS011;3578;51.568;6.932;2023-03-01T02:51:19;9.47;;;8.63;;
7074;SDS011;3578;51.568;6.932;2023-03-01T02:54:05;9.77;;;8.80;;
7074;SDS011;3578;51.568;6.932;2023-03-01T02:56:41;12.40;;;8.90;;
7074;SDS011;3578;51.568;6.932;2023-03-01T02:59:14;11.00;;;9.33;;
7074;SDS011;3578;51.568;6.932;2023-03-01T03:01:43;10.07;;;9.17;;
7074;SDS011;3578;51.568;6.932;2023-03-01T03:04:10;10.13;;;9.13;;
7074;SDS011;3578;51.568;6.932;2023-03-01T03:06:42;9.83;;;8.63;;
7074;SDS011;3578;51.568;6.932;2023-03-01T03:09:10;10.87;;;9.30;;
7074;SDS011;3578;51.568;6.932;2023-03-01T03:11:38;10.20;;;9.23;;
7074;SDS011;3578;51.568;6.932;2023-03-01T03:14:06;12.20;;;9.70;;
7074;SDS011;3578;51.568;6.932;2023-03-01T03:16:39;10.10;;;9.20;;
7074;SDS011;3578;51.568;6.932;2023-03-01T03:19:07;10.43;;;9.43;;
7074;SDS011;3578;51.568;6.932;2023-03-01T03:21:34;10.57;;;9.57;;
7074;SDS011;3578;51.568;6.932;2023-03-01T03:24:01;15.90;;;9.20;;
7074;SDS011;3578;51.568;6.932;2023-03-01T03:26:29;22.77;;;9.67;;
7074;SDS011;3578;51.568;6.932;2023-03-01T03:28:58;12.23;;;9.20;;
7074;SDS011;3578;51.568;6.932;2023-03-01T03:31:25;10.07;;;9.03;;
7074;SDS011;3578;51.568;6.932;2023-03-01T03:33:53;11.27;;;8.83;;
7074;SDS011;3578;51.568;6.932;2023-03-01T03:36:23;9.90;;;9.00;;
7074;SDS011;3578;51.568;6.932;2023-03-01T03:38:50;9.60;;;8.70;;
7074;SDS011;3578;51.568;6.932;2023-03-01T03:41:18;9.73;;;8.73;;
7074;SDS011;3578;51.568;6.932;2023-03-01T03:43:45;10.50;;;8.47;;
7074;SDS011;3578;51.568;6.932;2023-03-01T03:46:13;12.27;;;9.80;;
7074;SDS011;3578;51.568;6.932;2023-03-01T03:48:42;9.63;;;8.50;;
7074;SDS011;3578;51.568;6.932;2023-03-01T03:51:13;10.07;;;8.73;;
7074;SDS011;3578;51.568;6.932;2023-03-01T03:53:42;10.13;;;9.23;;
7074;SDS011;3578;51.568;6.932;2023-03-01T03:56:09;10.87;;;9.43;;
7074;SDS011;3578;51.568;6.932;2023-03-01T03:58:37;12.67;;;10.57;;
7074;SDS011;3578;51.568;6.932;2023-03-01T04:01:04;12.13;;;9.90;;
7074;SDS011;3578;51.568;6.932;2023-03-01T04:03:32;13.60;;;9.70;;
7074;SDS011;3578;51.568;6.932;2023-03-01T04:06:00;11.00;;;9.50;;
7074;SDS011;3578;51.568;6.932;2023-03-01T04:08:30;12.50;;;10.13;;
7074;SDS011;3578;51.568;6.932;2023-03-01T04:10:58;13.03;;;10.40;;
7074;SDS011;3578;51.568;6.932;2023-03-01T04:13:48;10.53;;;9.43;;
7074;SDS011;3578;51.568;6.932;2023-03-01T04:16:15;10.60;;;9.50;;
7074;SDS011;3578;51.568;6.932;2023-03-01T04:18:42;12.70;;;9.20;;
7074;SDS011;3578;51.568;6.932;2023-03-01T04:21:10;13.23;;;9.83;;
7074;SDS011;3578;51.568;6.932;2023-03-01T04:23:38;11.13;;;9.93;;
7074;SDS011;3578;51.568;6.932;2023-03-01T04:26:06;14.20;;;11.00;;
7074;SDS011;3578;51.568;6.932;2023-03-01T04:28:34;12.63;;;9.80;;
7074;SDS011;3578;51.568;6.932;2023-03-01T04:31:05;10.33;;;9.30;;
7074;SDS011;3578;51.568;6.932;2023-03-01T04:33:38;14.03;;;11.07;;
7074;SDS011;3578;51.568;6.932;2023-03-01T04:36:07;13.23;;;10.13;;
7074;SDS011;3578;51.568;6.932;2023-03-01T04:38:35;10.40;;;9.40;;
7074;SDS011;3578;51.568;6.932;2023-03-01T04:41:04;10.33;;;9.30;;
7074;SDS011;3578;51.568;6.932;2023-03-01T04:43:32;16.93;;;9.50;;
7074;SDS011;3578;51.568;6.932;2023-03-01T04:46:00;9.30;;;8.47;;
7074;SDS011;3578;51.568;6.932;2023-03-01T04:48:28;11.47;;;9.80;;
7074;SDS011;3578;51.568;6.932;2023-03-01T04:50:57;10.93;;;9.83;;
7074;SDS011;3578;51.568;6.932;2023-03-01T04:53:25;11.60;;;10.50;;
7074;SDS011;3578;51.568;6.932;2023-03-01T04:55:53;14.33;;;11.00;;
7074;SDS011;3578;51.568;6.932;2023-03-01T04:58:22;10.50;;;9.57;;
7074;SDS011;3578;51.568;6.932;2023-03-01T05:00:50;10.77;;;9.67;;
7074;SDS011;3578;51.568;6.932;2023-03-01T05:03:18;11.93;;;9.87;;
7074;SDS011;3578;51.568;6.932;2023-03-01T05:05:46;11.70;;;10.50;;
7074;SDS011;3578;51.568;6.932;2023-03-01T05:08:15;16.63;;;10.20;;
7074;SDS011;3578;51.568;6.932;2023-03-01T05:10:44;11.23;;;9.90;;
7074;SDS011;3578;51.568;6.932;2023-03-01T05:13:12;12.80;;;10.70;;
7074;SDS011;3578;51.568;6.932;2023-03-01T05:15:47;13.90;;;11.30;;
7074;SDS011;3578;51.568;6.932;2023-03-01T05:18:15;13.47;;;10.80;;
7074;SDS011;3578;51.568;6.932;2023-03-01T05:20:42;12.27;;;10.97;;
7074;SDS011;3578;51.568;6.932;2023-03-01T05:23:09;11.40;;;10.20;;
7074;SDS011;3578;51.568;6.932;2023-03-01T05:25:36;11.00;;;9.70;;
7074;SDS011;3578;51.568;6.932;2023-03-01T05:28:05;12.30;;;9.30;;
7074;SDS011;3578;51.568;6.932;2023-03-01T05:30:36;13.90;;;11.20;;
7074;SDS011;3578;51.568;6.932;2023-03-01T05:33:06;13.93;;;11.03;;
7074;SDS011;3578;51.568;6.932;2023-03-01T05:35:38;18.43;;;11.13;;
7074;SDS011;3578;51.568;6.932;2023-03-01T05:38:07;15.70;;;11.10;;
7074;SDS011;3578;51.568;6.932;2023-03-01T05:40:34;16.10;;;11.40;;
7074;SDS011;3578;51.568;6.932;2023-03-01T05:43:01;12.10;;;10.07;;
7074;SDS011;3578;51.568;6.932;2023-03-01T05:45:30;19.17;;;11.00;;
7074;SDS011;3578;51.568;6.932;2023-03-01T05:47:58;17.37;;;10.33;;
7074;SDS011;3578;51.568;6.932;2023-03-01T05:50:27;14.67;;;10.17;;
7074;SDS011;3578;51.568;6.932;2023-03-01T05:52:58;26.37;;;11.23;;
7074;SDS011;3578;51.568;6.932;2023-03-01T05:55:27;14.83;;;10.33;;
7074;SDS011;3578;51.568;6.932;2023-03-01T05:57:57;15.80;;;10.90;;
7074;SDS011;3578;51.568;6.932;2023-03-01T06:00:26;15.23;;;11.43;;
7074;SDS011;3578;51.568;6.932;2023-03-01T06:02:54;19.47;;;12.30;;
7074;SDS011;3578;51.568;6.932;2023-03-01T06:05:23;14.20;;;12.50;;
7074;SDS011;3578;51.568;6.932;2023-03-01T06:07:52;19.13;;;11.00;;
7074;SDS011;3578;51.568;6.932;2023-03-01T06:10:20;13.87;;;10.63;;
7074;SDS011;3578;51.568;6.932;2023-03-01T06:12:48;16.70;;;11.03;;
7074;SDS011;3578;51.568;6.932;2023-03-01T06:15:15;14.37;;;11.23;;
7074;SDS011;3578;51.568;6.932;2023-03-01T06:17:43;17.83;;;12.17;;
7074;SDS011;3578;51.568;6.932;2023-03-01T06:20:12;20.13;;;11.43;;
7074;SDS011;3578;51.568;6.932;2023-03-01T06:22:42;22.10;;;12.37;;
7074;SDS011;3578;51.568;6.932;2023-03-01T06:25:11;18.97;;;10.93;;
7074;SDS011;3578;51.568;6.932;2023-03-01T06:27:40;22.43;;;12.33;;
7074;SDS011;3578;51.568;6.932;2023-03-01T06:30:08;19.53;;;11.40;;
7074;SDS011;3578;51.568;6.932;2023-03-01T06:32:39;29.03;;;12.90;;
7074;SDS011;3578;51.568;6.932;2023-03-01T06:35:07;17.40;;;11.23;;
7074;SDS011;3578;51.568;6.932;2023-03-01T06:37:35;16.97;;;11.80;;
7074;SDS011;3578;51.568;6.932;2023-03-01T06:40:02;14.73;;;11.20;;
7074;SDS011;3578;51.568;6.932;2023-03-01T06:42:34;13.17;;;11.47;;
7074;SDS011;3578;51.568;6.932;2023-03-01T06:45:01;17.87;;;10.87;;
7074;SDS011;3578;51.568;6.932;2023-03-01T06:47:30;15.40;;;10.30;;
7074;SDS011;3578;51.568;6.932;2023-03-01T06:49:58;12.00;;;9.87;;
7074;SDS011;3578;51.568;6.932;2023-03-01T06:52:25;12.90;;;10.53;;
7074;SDS011;3578;51.568;6.932;2023-03-01T06:54:52;21.43;;;10.17;;
7074;SDS011;3578;51.568;6.932;2023-03-01T06:57:19;14.53;;;9.63;;
7074;SDS011;3578;51.568;6.932;2023-03-01T06:59:47;21.50;;;10.37;;
7074;SDS011;3578;51.568;6.932;2023-03-01T07:02:14;14.83;;;10.10;;
7074;SDS011;3578;51.568;6.932;2023-03-01T07:04:41;14.20;;;11.83;;
7074;SDS011;3578;51.568;6.932;2023-03-01T07:07:09;11.60;;;10.00;;
7074;SDS011;3578;51.568;6.932;2023-03-01T07:09:36;12.10;;;9.30;;
7074;SDS011;3578;51.568;6.932;2023-03-01T07:12:03;13.07;;;9.13;;
7074;SDS011;3578;51.568;6.932;2023-03-01T07:14:31;11.40;;;8.17;;
7074;SDS011;3578;51.568;6.932;2023-03-01T07:17:00;15.60;;;9.97;;
7074;SDS011;3578;51.568;6.932;2023-03-01T07:19:26;12.40;;;8.57;;
7074;SDS011;3578;51.568;6.932;2023-03-01T07:21:53;9.40;;;8.27;;
7074;SDS011;3578;51.568;6.932;2023-03-01T07:24:21;16.40;;;8.10;;
7074;SDS011;3578;51.568;6.932;2023-03-01T07:26:48;10.13;;;7.80;;
7074;SDS011;3578;51.568;6.932;2023-03-01T07:29:15;42.43;;;9.00;;
7074;SDS011;3578;51.568;6.932;2023-03-01T07:31:43;12.90;;;8.40;;
7074;SDS011;3578;51.568;6.932;2023-03-01T07:34:11;40.90;;;10.47;;
7074;SDS011;3578;51.568;6.932;2023-03-01T07:36:38;19.93;;;8.40;;
7074;SDS011;3578;51.568;6.932;2023-03-01T07:39:08;38.17;;;10.33;;
7074;SDS011;3578;51.568;6.932;2023-03-01T07:41:35;16.00;;;9.00;;
7074;SDS011;3578;51.568;6.932;2023-03-01T07:44:02;10.67;;;8.50;;
7074;SDS011;3578;51.568;6.932;2023-03-01T07:46:30;11.07;;;8.10;;
7074;SDS011;3578;51.568;6.932;2023-03-01T07:48:57;9.33;;;7.87;;
7074;SDS011;3578;51.568;6.932;2023-03-01T07:51:25;7.80;;;7.00;;
7074;SDS011;3578;51.568;6.932;2023-03-01T07:53:52;9.67;;;7.60;;
7074;SDS011;3578;51.568;6.932;2023-03-01T07:56:19;8.50;;;7.70;;
7074;SDS011;3578;51.568;6.932;2023-03-01T07:58:47;14.30;;;8.10;;
7074;SDS011;3578;51.568;6.932;2023-03-01T08:01:14;10.77;;;8.70;;
7074;SDS011;3578;51.568;6.932;2023-03-01T08:03:43;12.27;;;8.27;;
7074;SDS011;3578;51.568;6.932;2023-03-01T08:06:11;9.53;;;7.47;;
7074;SDS011;3578;51.568;6.932;2023-03-01T08:08:42;16.83;;;7.70;;
7074;SDS011;3578;51.568;6.932;2023-03-01T08:11:11;7.87;;;7.17;;
7074;SDS011;3578;51.568;6.932;2023-03-01T08:13:40;16.50;;;8.57;;
7074;SDS011;3578;51.568;6.932;2023-03-01T08:16:10;15.13;;;8.10;;
7074;SDS011;3578;51.568;6.932;2023-03-01T08:18:39;13.10;;;7.37;;
7074;SDS011;3578;51.568;6.932;2023-03-01T08:21:07;16.60;;;8.00;;
7074;SDS011;3578;51.568;6.932;2023-03-01T08:23:37;13.80;;;7.90;;
7074;SDS011;3578;51.568;6.932;2023-03-01T08:26:06;19.03;;;9.00;;
7074;SDS011;3578;51.568;6.932;2023-03-01T08:28:36;9.50;;;7.80;;
7074;SDS011;3578;51.568;6.932;2023-03-01T08:31:12;12.10;;;8.30;;
7074;SDS011;3578;51.568;6.932;2023-03-01T08:33:41;9.33;;;8.47;;
7074;SDS011;3578;51.568;6.932;2023-03-01T08:36:08;9.63;;;8.73;;
7074;SDS011;3578;51.568;6.932;2023-03-01T08:38:35;9.37;;;8.47;;
7074;SDS011;3578;51.568;6.932;2023-03-01T08:41:02;11.60;;;8.67;;
7074;SDS011;3578;51.568;6.932;2023-03-01T08:43:31;12.17;;;8.33;;
7074;SDS011;3578;51.568;6.932;2023-03-01T08:45:58;12.33;;;8.50;;
7074;SDS011;3578;51.568;6.932;2023-03-01T08:48:27;7.83;;;7.23;;
7074;SDS011;3578;51.568;6.932;2023-03-01T08:50:54;8.07;;;7.27;;
7074;SDS011;3578;51.568;6.932;2023-03-01T08:53:21;8.67;;;7.77;;
7074;SDS011;3578;51.568;6.932;2023-03-01T08:55:48;8.77;;;7.97;;
7074;SDS011;3578;51.568;6.932;2023-03-01T08:58:15;9.10;;;7.70;;
7074;SDS011;3578;51.568;6.932;2023-03-01T09:00:44;8.33;;;7.43;;
7074;SDS011;3578;51.568;6.932;2023-03-01T09:03:11;10.50;;;7.10;;
7074;SDS011;3578;51.568;6.932;2023-03-01T09:05:38;9.47;;;6.80;;
7074;SDS011;3578;51.568;6.932;2023-03-01T09:08:05;10.20;;;7.47;;
7074;SDS011;3578;51.568;6.932;2023-03-01T09:10:36;8.20;;;7.40;;
7074;SDS011;3578;51.568;6.932;2023-03-01T09:13:04;8.00;;;6.83;;
7074;SDS011;3578;51.568;6.932;2023-03-01T09:15:31;58.27;;;9.80;;
7074;SDS011;3578;51.568;6.932;2023-03-01T09:17:59;8.00;;;7.30;;
7074;SDS011;3578;51.568;6.932;2023-03-01T09:20:26;7.87;;;6.40;;
7074;SDS011;3578;51.568;6.932;2023-03-01T09:22:53;7.83;;;7.13;;
7074;SDS011;3578;51.568;6.932;2023-03-01T09:25:20;7.13;;;6.53;;
7074;SDS011;3578;51.568;6.932;2023-03-01T09:27:47;12.17;;;7.20;;
7074;SDS011;3578;51.568;6.932;2023-03-01T09:30:17;10.10;;;8.03;;
7074;SDS011;3578;51.568;6.932;2023-03-01T09:32:44;10.80;;;6.73;;
7074;SDS011;3578;51.568;6.932;2023-03-01T09:35:13;8.23;;;6.90;;
7074;SDS011;3578;51.568;6.932;2023-03-01T09:37:40;8.90;;;6.93;;
7074;SDS011;3578;51.568;6.932;2023-03-01T09:40:09;11.90;;;6.87;;
7074;SDS011;3578;51.568;6.932;2023-03-01T09:42:45;8.00;;;7.00;;
7074;SDS011;3578;51.568;6.932;2023-03-01T09:45:21;7.43;;;6.73;;
7074;SDS011;3578;51.568;6.932;2023-03-01T09:47:59;42.03;;;8.67;;
7074;SDS011;3578;51.568;6.932;2023-03-01T09:50:32;11.03;;;6.03;;
7074;SDS011;3578;51.568;6.932;2023-03-01T09:53:05;20.43;;;7.63;;
7074;SDS011;3578;51.568;6.932;2023-03-01T09:55:38;21.00;;;7.60;;
7074;SDS011;3578;51.568;6.932;2023-03-01T09:58:22;40.23;;;8.37;;
7074;SDS011;3578;51.568;6.932;2023-03-01T10:01:21;7.57;;;6.83;;
7074;SDS011;3578;51.568;6.932;2023-03-01T10:04:10;9.20;;;6.73;;
7074;SDS011;3578;51.568;6.932;2023-03-01T10:06:58;8.63;;;6.50;;
7074;SDS011;3578;51.568;6.932;2023-03-01T10:09:41;19.30;;;6.80;;
7074;SDS011;3578;51.568;6.932;2023-03-01T10:12:11;8.10;;;7.33;;
7074;SDS011;3578;51.568;6.932;2023-03-01T10:14:43;9.57;;;6.83;;
7074;SDS011;3578;51.568;6.932;2023-03-01T10:17:23;6.83;;;6.23;;
7074;SDS011;3578;51.568;6.932;2023-03-01T10:19:56;6.73;;;6.13;;
7074;SDS011;3578;51.568;6.932;2023-03-01T10:22:29;8.00;;;5.87;;
7074;SDS011;3578;51.568;6.932;2023-03-01T10:24:58;14.30;;;6.70;;
7074;SDS011;3578;51.568;6.932;2023-03-01T10:27:29;9.40;;;7.23;;
7074;SDS011;3578;51.568;6.932;2023-03-01T10:30:12;8.43;;;6.40;;
7074;SDS011;3578;51.568;6.932;2023-03-01T10:32:45;10.20;;;7.07;;
7074;SDS011;3578;51.568;6.932;2023-03-01T10:35:15;13.50;;;7.50;;
7074;SDS011;3578;51.568;6.932;2023-03-01T10:37:59;7.13;;;6.20;;
7074;SDS011;3578;51.568;6.932;2023-03-01T10:40:31;9.67;;;6.40;;
7074;SDS011;3578;51.568;6.932;2023-03-01T10:42:59;10.80;;;7.53;;
7074;SDS011;3578;51.568;6.932;2023-03-01T10:45:30;8.23;;;6.50;;
7074;SDS011;3578;51.568;6.932;2023-03-01T10:48:04;7.53;;;6.73;;
7074;SDS011;3578;51.568;6.932;2023-03-01T10:50:39;7.33;;;6.30;;
7074;SDS011;3578;51.568;6.932;2023-03-01T10:53:18;9.53;;;7.17;;
7074;SDS011;3578;51.568;6.932;2023-03-01T10:55:57;6.83;;;6.10;;
7074;SDS011;3578;51.568;6.932;2023-03-01T10:58:27;14.87;;;6.60;;
7074;SDS011;3578;51.568;6.932;2023-03-01T11:00:56;9.43;;;7.20;;
7074;SDS011;3578;51.568;6.932;2023-03-01T11:03:25;25.60;;;7.40;;
7074;SDS011;3578;51.568;6.932;2023-03-01T11:05:57;10.10;;;6.80;;
7074;SDS011;3578;51.568;6.932;2023-03-01T11:08:33;20.23;;;8.03;;
7074;SDS011;3578;51.568;6.932;2023-03-01T11:11:13;8.60;;;7.73;;
7074;SDS011;3578;51.568;6.932;2023-03-01T11:13:56;13.87;;;8.00;;
7074;SDS011;3578;51.568;6.932;2023-03-01T11:16:27;29.47;;;8.87;;
7074;SDS011;3578;51.568;6.932;2023-03-01T11:19:01;11.63;;;7.53;;
7074;SDS011;3578;51.568;6.932;2023-03-01T11:21:59;13.13;;;7.00;;
7074;SDS011;3578;51.568;6.932;2023-03-01T11:24:33;7.03;;;6.33;;
7074;SDS011;3578;51.568;6.932;2023-03-01T11:27:08;9.97;;;6.70;;
7074;SDS011;3578;51.568;6.932;2023-03-01T11:29:45;10.20;;;6.60;;
7074;SDS011;3578;51.568;6.932;2023-03-01T11:32:18;8.57;;;6.70;;
7074;SDS011;3578;51.568;6.932;2023-03-01T11:34:50;16.43;;;7.40;;
7074;SDS011;3578;51.568;6.932;2023-03-01T11:37:28;23.37;;;6.73;;
7074;SDS011;3578;51.568;6.932;2023-03-01T11:40:10;13.10;;;7.87;;
7074;SDS011;3578;51.568;6.932;2023-03-01T11:42:46;14.03;;;7.40;;
7074;SDS011;3578;51.568;6.932;2023-03-01T11:45:25;27.13;;;8.23;;
7074;SDS011;3578;51.568;6.932;2023-03-01T11:48:11;11.30;;;6.30;;
7074;SDS011;3578;51.568;6.932;2023-03-01T11:51:04;10.93;;;6.70;;
7074;SDS011;3578;51.568;6.932;2023-03-01T11:53:47;8.90;;;6.53;;
7074;SDS011;3578;51.568;6.932;2023-03-01T11:56:31;24.10;;;7.17;;
7074;SDS011;3578;51.568;6.932;2023-03-01T12:02:26;10.50;;;6.70;;
7074;SDS011;3578;51.568;6.932;2023-03-01T12:05:38;7.80;;;6.97;;
7074;SDS011;3578;51.568;6.932;2023-03-01T12:08:23;10.40;;;7.03;;
7074;SDS011;3578;51.568;6.932;2023-03-01T12:10:57;12.30;;;7.17;;
7074;SDS011;3578;51.568;6.932;2023-03-01T12:16:52;31.67;;;10.50;;
7074;SDS011;3578;51.568;6.932;2023-03-01T12:19:47;8.80;;;6.90;;
7074;SDS011;3578;51.568;6.932;2023-03-01T12:22:29;10.47;;;6.70;;
7074;SDS011;3578;51.568;6.932;2023-03-01T12:28:02;35.63;;;9.43;;
7074;SDS011;3578;51.568;6.932;2023-03-01T12:34:15;16.50;;;8.10;;
7074;SDS011;3578;51.568;6.932;2023-03-01T12:37:01;10.77;;;6.73;;
7074;SDS011;3578;51.568;6.932;2023-03-01T12:39:44;16.83;;;6.43;;
7074;SDS011;3578;51.568;6.932;2023-03-01T12:42:27;9.13;;;6.20;;
7074;SDS011;3578;51.568;6.932;2023-03-01T12:45:23;5.83;;;5.33;;
7074;SDS011;3578;51.568;6.932;2023-03-01T12:48:30;18.43;;;6.07;;
7074;SDS011;3578;51.568;6.932;2023-03-01T12:51:07;10.90;;;7.10;;
7074;SDS011;3578;51.568;6.932;2023-03-01T12:53:40;17.73;;;6.73;;
7074;SDS011;3578;51.568;6.932;2023-03-01T12:56:12;34.10;;;10.47;;
7074;SDS011;3578;51.568;6.932;2023-03-01T12:58:47;10.00;;;6.50;;
7074;SDS011;3578;51.568;6.932;2023-03-01T13:01:30;8.57;;;6.80;;
7074;SDS011;3578;51.568;6.932;2023-03-01T13:04:14;16.30;;;8.13;;
7074;SDS011;3578;51.568;6.932;2023-03-01T13:07:16;14.73;;;8.00;;
7074;SDS011;3578;51.568;6.932;2023-03-01T13:09:55;20.60;;;8.83;;
7074;SDS011;3578;51.568;6.932;2023-03-01T13:12:41;16.07;;;8.10;;
7074;SDS011;3578;51.568;6.932;2023-03-01T13:15:25;18.47;;;7.20;;
7074;SDS011;3578;51.568;6.932;2023-03-01T13:17:58;15.37;;;8.30;;
7074;SDS011;3578;51.568;6.932;2023-03-01T13:20:31;12.00;;;7.67;;
7074;SDS011;3578;51.568;6.932;2023-03-01T13:23:11;12.83;;;7.40;;
7074;SDS011;3578;51.568;6.932;2023-03-01T13:26:00;9.07;;;7.27;;
7074;SDS011;3578;51.568;6.932;2023-03-01T13:28:49;12.63;;;7.10;;
7074;SDS011;3578;51.568;6.932;2023-03-01T13:37:18;7.13;;;6.43;;
7074;SDS011;3578;51.568;6.932;2023-03-01T13:39:54;8.90;;;7.20;;
7074;SDS011;3578;51.568;6.932;2023-03-01T13:42:37;21.23;;;8.70;;
7074;SDS011;3578;51.568;6.932;2023-03-01T13:45:16;12.20;;;7.00;;
7074;SDS011;3578;51.568;6.932;2023-03-01T13:47:52;16.33;;;7.93;;
7074;SDS011;3578;51.568;6.932;2023-03-01T13:50:24;9.10;;;6.63;;
7074;SDS011;3578;51.568;6.932;2023-03-01T13:52:57;8.50;;;7.40;;
7074;SDS011;3578;51.568;6.932;2023-03-01T13:55:30;28.70;;;11.00;;
7074;SDS011;3578;51.568;6.932;2023-03-01T13:58:04;10.73;;;7.40;;
7074;SDS011;3578;51.568;6.932;2023-03-01T14:00:45;12.10;;;7.90;;
7074;SDS011;3578;51.568;6.932;2023-03-01T14:03:13;9.33;;;7.70;;
7074;SDS011;3578;51.568;6.932;2023-03-01T14:05:42;9.73;;;7.20;;
7074;SDS011;3578;51.568;6.932;2023-03-01T14:08:25;12.63;;;7.90;;
7074;SDS011;3578;51.568;6.932;2023-03-01T14:11:01;11.00;;;7.67;;
7074;SDS011;3578;51.568;6.932;2023-03-01T14:14:06;10.77;;;7.33;;
7074;SDS011;3578;51.568;6.932;2023-03-01T14:16:57;10.37;;;7.80;;
7074;SDS011;3578;51.568;6.932;2023-03-01T14:19:39;8.30;;;7.60;;
7074;SDS011;3578;51.568;6.932;2023-03-01T14:22:12;10.20;;;8.20;;
7074;SDS011;3578;51.568;6.932;2023-03-01T14:24:48;9.67;;;7.87;;
7074;SDS011;3578;51.568;6.932;2023-03-01T14:27:17;11.20;;;8.23;;
7074;SDS011;3578;51.568;6.932;2023-03-01T14:29:47;10.60;;;7.83;;
7074;SDS011;3578;51.568;6.932;2023-03-01T14:32:23;12.60;;;8.27;;
7074;SDS011;3578;51.568;6.932;2023-03-01T14:34:53;11.87;;;8.23;;
7074;SDS011;3578;51.568;6.932;2023-03-01T14:37:23;9.93;;;8.33;;
7074;SDS011;3578;51.568;6.932;2023-03-01T14:39:54;10.70;;;8.20;;
7074;SDS011;3578;51.568;6.932;2023-03-01T14:42:23;19.10;;;8.67;;
7074;SDS011;3578;51.568;6.932;2023-03-01T14:44:54;9.20;;;7.50;;
7074;SDS011;3578;51.568;6.932;2023-03-01T14:47:25;8.70;;;7.80;;
7074;SDS011;3578;51.568;6.932;2023-03-01T14:49:57;11.53;;;7.43;;
7074;SDS011;3578;51.568;6.932;2023-03-01T14:52:30;10.33;;;7.47;;
7074;SDS011;3578;51.568;6.932;2023-03-01T14:55:03;7.50;;;6.80;;
7074;SDS011;3578;51.568;6.932;2023-03-01T14:57:42;15.83;;;7.63;;
7074;SDS011;3578;51.568;6.932;2023-03-01T15:00:13;18.40;;;7.00;;
7074;SDS011;3578;51.568;6.932;2023-03-01T15:02:46;14.90;;;7.57;;
7074;SDS011;3578;51.568;6.932;2023-03-01T15:05:14;13.00;;;6.90;;
7074;SDS011;3578;51.568;6.932;2023-03-01T15:07:51;9.50;;;7.13;;
7074;SDS011;3578;51.568;6.932;2023-03-01T15:10:21;11.70;;;6.97;;
7074;SDS011;3578;51.568;6.932;2023-03-01T15:12:50;13.43;;;7.47;;
7074;SDS011;3578;51.568;6.932;2023-03-01T15:18:13;25.80;;;7.37;;
7074;SDS011;3578;51.568;6.932;2023-03-01T15:20:44;18.30;;;7.30;;
7074;SDS011;3578;51.568;6.932;2023-03-01T15:23:16;26.40;;;7.40;;
7074;SDS011;3578;51.568;6.932;2023-03-01T15:25:52;11.03;;;7.80;;
7074;SDS011;3578;51.568;6.932;2023-03-01T15:28:23;17.97;;;7.77;;
7074;SDS011;3578;51.568;6.932;2023-03-01T15:30:55;8.63;;;7.10;;
7074;SDS011;3578;51.568;6.932;2023-03-01T15:33:29;14.80;;;7.00;;
7074;SDS011;3578;51.568;6.932;2023-03-01T15:35:59;15.17;;;7.87;;
7074;SDS011;3578;51.568;6.932;2023-03-01T15:38:33;30.00;;;7.53;;
7074;SDS011;3578;51.568;6.932;2023-03-01T15:41:06;21.53;;;8.67;;
7074;SDS011;3578;51.568;6.932;2023-03-01T15:43:50;45.03;;;9.27;;
7074;SDS011;3578;51.568;6.932;2023-03-01T15:46:21;11.50;;;7.43;;
7074;SDS011;3578;51.568;6.932;2023-03-01T15:48:52;11.17;;;8.20;;
7074;SDS011;3578;51.568;6.932;2023-03-01T15:51:26;14.70;;;8.00;;
7074;SDS011;3578;51.568;6.932;2023-03-01T15:53:58;10.20;;;7.93;;
7074;SDS011;3578;51.568;6.932;2023-03-01T15:56:29;11.57;;;8.20;;